Floyd Bennett Memorial Airport Glens Falls US
ICAO: KGFL
IATA: GFL
Category: Medium
Scheduled Services: No

Elevation: 328 ft
TransAlt. 18000 ft.

Airport Communications:
ALBANY APP/DEP:125
ASOS:119.25
BURLINGTON RDO:122.2
CTAF/UNICOM:123

KGFL Zoom In..

Runways:

(A) RW 01 length 5000 ft width 150 ft
ILS 110.70 / hdg 12

(B) RW 12 length 3999 ft width 100 ft
---- / hdg 124

(C) RW 19 length 5000 ft width 150 ft
---- / hdg 192

(D) RW 30 length 3999 ft width 100 ft
---- / hdg 304

Location; KGFL
Day. 22 / Time. 23.53 Zulu
* Altimeter: 30.14
* Temperature: -02° c. -28.4°f.
* Wind from: 120° Speed 04 kn.
Dewpoint: -02° c.
Visibility: 6 Statute Miles.
Clouds: Broken 500 ft.
Clouds: Overcast 1700 ft.
Conditions: Mist.

KGFL 222353Z AUTO 12004KT 6SM UP BR BKN005 OVC017 M02/M02 A3014 RMK AO2 SLP214 P0001 60001 T10221022 11006 21022 56003


Wind From 120°
Speed 04 kn.

YouTube Music Video
 
jpsmedia.com for Web Design  worldairports.se 2018   terms of use